sensor_id;sensor_type;location;lat;lon;timestamp;temperature;humidity
3778;DHT22;1904;50.076;8.660;2022-12-29T00:01:13;10.90;1.00
3778;DHT22;1904;50.076;8.660;2022-12-29T00:03:55;10.90;1.00
3778;DHT22;1904;50.076;8.660;2022-12-29T00:06:25;10.90;1.00
3778;DHT22;1904;50.076;8.660;2022-12-29T00:08:55;10.90;1.00
3778;DHT22;1904;50.076;8.660;2022-12-29T00:11:22;11.00;1.00
3778;DHT22;1904;50.076;8.660;2022-12-29T00:17:01;11.10;1.00
3778;DHT22;1904;50.076;8.660;2022-12-29T00:19:31;11.20;1.00
3778;DHT22;1904;50.076;8.660;2022-12-29T00:22:15;11.10;1.00
3778;DHT22;1904;50.076;8.660;2022-12-29T00:25:00;11.00;1.00
3778;DHT22;1904;50.076;8.660;2022-12-29T00:27:44;11.00;1.00
3778;DHT22;1904;50.076;8.660;2022-12-29T00:30:43;10.90;1.00
3778;DHT22;1904;50.076;8.660;2022-12-29T00:33:31;10.80;1.00
3778;DHT22;1904;50.076;8.660;2022-12-29T00:38:48;10.70;1.00
3778;DHT22;1904;50.076;8.660;2022-12-29T00:41:37;10.70;1.00
3778;DHT22;1904;50.076;8.660;2022-12-29T00:44:21;10.70;1.00
3778;DHT22;1904;50.076;8.660;2022-12-29T00:46:47;10.70;1.00
3778;DHT22;1904;50.076;8.660;2022-12-29T00:49:13;10.70;1.00
3778;DHT22;1904;50.076;8.660;2022-12-29T00:52:09;10.70;1.00
3778;DHT22;1904;50.076;8.660;2022-12-29T00:54:38;10.70;1.00
3778;DHT22;1904;50.076;8.660;2022-12-29T00:57:08;10.70;1.00
3778;DHT22;1904;50.076;8.660;2022-12-29T00:59:38;10.70;1.00
3778;DHT22;1904;50.076;8.660;2022-12-29T01:02:08;10.60;1.00
3778;DHT22;1904;50.076;8.660;2022-12-29T01:04:34;10.60;1.00
3778;DHT22;1904;50.076;8.660;2022-12-29T01:07:07;10.50;1.00
3778;DHT22;1904;50.076;8.660;2022-12-29T01:09:49;10.50;1.00
3778;DHT22;1904;50.076;8.660;2022-12-29T01:12:43;10.50;1.00
3778;DHT22;1904;50.076;8.660;2022-12-29T01:15:11;10.50;1.00
3778;DHT22;1904;50.076;8.660;2022-12-29T01:17:49;10.60;1.00
3778;DHT22;1904;50.076;8.660;2022-12-29T01:20:15;10.70;1.00
3778;DHT22;1904;50.076;8.660;2022-12-29T01:22:40;10.70;1.00
3778;DHT22;1904;50.076;8.660;2022-12-29T01:25:07;10.70;1.00
3778;DHT22;1904;50.076;8.660;2022-12-29T01:27:33;10.70;1.00
3778;DHT22;1904;50.076;8.660;2022-12-29T01:29:59;10.80;1.00
3778;DHT22;1904;50.076;8.660;2022-12-29T01:32:24;10.80;1.00
3778;DHT22;1904;50.076;8.660;2022-12-29T01:34:55;10.80;1.00
3778;DHT22;1904;50.076;8.660;2022-12-29T01:37:21;10.90;1.00
3778;DHT22;1904;50.076;8.660;2022-12-29T01:39:47;10.90;1.00
3778;DHT22;1904;50.076;8.660;2022-12-29T01:42:22;10.90;1.00
3778;DHT22;1904;50.076;8.660;2022-12-29T01:50:12;11.00;1.00
3778;DHT22;1904;50.076;8.660;2022-12-29T01:52:45;10.90;1.00
3778;DHT22;1904;50.076;8.660;2022-12-29T01:55:19;10.90;1.00
3778;DHT22;1904;50.076;8.660;2022-12-29T01:57:46;10.90;1.00
3778;DHT22;1904;50.076;8.660;2022-12-29T02:00:25;11.00;1.00
3778;DHT22;1904;50.076;8.660;2022-12-29T02:02:52;11.00;1.00
3778;DHT22;1904;50.076;8.660;2022-12-29T02:05:33;10.90;1.00
3778;DHT22;1904;50.076;8.660;2022-12-29T02:08:01;11.00;1.00
3778;DHT22;1904;50.076;8.660;2022-12-29T02:10:28;11.00;1.00
3778;DHT22;1904;50.076;8.660;2022-12-29T02:12:55;11.00;1.00
3778;DHT22;1904;50.076;8.660;2022-12-29T02:15:23;11.10;1.00
3778;DHT22;1904;50.076;8.660;2022-12-29T02:18:05;11.10;1.00
3778;DHT22;1904;50.076;8.660;2022-12-29T02:33:34;11.20;1.00
3778;DHT22;1904;50.076;8.660;2022-12-29T02:36:07;11.30;1.00
3778;DHT22;1904;50.076;8.660;2022-12-29T02:38:47;11.30;1.00
3778;DHT22;1904;50.076;8.660;2022-12-29T02:41:30;11.30;1.00
3778;DHT22;1904;50.076;8.660;2022-12-29T02:46:37;11.30;1.00
3778;DHT22;1904;50.076;8.660;2022-12-29T02:51:44;11.20;1.00
3778;DHT22;1904;50.076;8.660;2022-12-29T02:54:16;11.10;1.00
3778;DHT22;1904;50.076;8.660;2022-12-29T02:57:11;11.10;1.00
3778;DHT22;1904;50.076;8.660;2022-12-29T02:59:51;11.10;1.00
3778;DHT22;1904;50.076;8.660;2022-12-29T03:18:40;11.30;1.00
3778;DHT22;1904;50.076;8.660;2022-12-29T03:21:08;11.30;1.00
3778;DHT22;1904;50.076;8.660;2022-12-29T03:23:37;11.40;1.00
3778;DHT22;1904;50.076;8.660;2022-12-29T03:26:14;11.40;1.00
3778;DHT22;1904;50.076;8.660;2022-12-29T03:28:51;11.40;1.00
3778;DHT22;1904;50.076;8.660;2022-12-29T03:37:21;11.40;1.00
3778;DHT22;1904;50.076;8.660;2022-12-29T03:39:55;11.30;1.00
3778;DHT22;1904;50.076;8.660;2022-12-29T03:42:23;11.30;1.00
3778;DHT22;1904;50.076;8.660;2022-12-29T03:44:49;11.30;1.00
3778;DHT22;1904;50.076;8.660;2022-12-29T03:47:18;11.30;1.00
3778;DHT22;1904;50.076;8.660;2022-12-29T03:49:43;11.30;1.00
3778;DHT22;1904;50.076;8.660;2022-12-29T03:52:13;11.30;1.00
3778;DHT22;1904;50.076;8.660;2022-12-29T03:57:43;11.40;1.00
3778;DHT22;1904;50.076;8.660;2022-12-29T04:00:09;11.50;1.00
3778;DHT22;1904;50.076;8.660;2022-12-29T04:05:33;11.50;1.00
3778;DHT22;1904;50.076;8.660;2022-12-29T04:08:07;11.50;1.00
3778;DHT22;1904;50.076;8.660;2022-12-29T04:10:33;11.60;1.00
3778;DHT22;1904;50.076;8.660;2022-12-29T04:13:07;11.60;1.00
3778;DHT22;1904;50.076;8.660;2022-12-29T04:15:37;11.70;1.00
3778;DHT22;1904;50.076;8.660;2022-12-29T04:18:07;11.60;1.00
3778;DHT22;1904;50.076;8.660;2022-12-29T04:20:37;11.60;1.00
3778;DHT22;1904;50.076;8.660;2022-12-29T04:23:22;11.70;1.00
3778;DHT22;1904;50.076;8.660;2022-12-29T04:25:49;11.70;1.00
3778;DHT22;1904;50.076;8.660;2022-12-29T04:28:15;11.80;1.00
3778;DHT22;1904;50.076;8.660;2022-12-29T04:30:41;11.90;1.00
3778;DHT22;1904;50.076;8.660;2022-12-29T04:33:07;11.80;1.00
3778;DHT22;1904;50.076;8.660;2022-12-29T04:35:33;11.90;1.00
3778;DHT22;1904;50.076;8.660;2022-12-29T04:38:07;11.90;1.00
3778;DHT22;1904;50.076;8.660;2022-12-29T04:46:25;12.00;1.00
3778;DHT22;1904;50.076;8.660;2022-12-29T04:49:01;12.00;1.00
3778;DHT22;1904;50.076;8.660;2022-12-29T04:51:33;12.10;1.00
3778;DHT22;1904;50.076;8.660;2022-12-29T04:54:07;12.20;1.00
3778;DHT22;1904;50.076;8.660;2022-12-29T04:56:37;12.20;1.00
3778;DHT22;1904;50.076;8.660;2022-12-29T04:59:13;12.20;1.00
3778;DHT22;1904;50.076;8.660;2022-12-29T05:01:39;12.20;1.00
3778;DHT22;1904;50.076;8.660;2022-12-29T05:07:01;12.30;1.00
3778;DHT22;1904;50.076;8.660;2022-12-29T05:12:38;12.20;1.00
3778;DHT22;1904;50.076;8.660;2022-12-29T05:15:08;12.10;1.00
3778;DHT22;1904;50.076;8.660;2022-12-29T05:23:37;12.10;1.00
3778;DHT22;1904;50.076;8.660;2022-12-29T05:26:07;12.10;1.00
3778;DHT22;1904;50.076;8.660;2022-12-29T05:28:49;12.10;1.00
3778;DHT22;1904;50.076;8.660;2022-12-29T05:31:26;12.00;1.00
3778;DHT22;1904;50.076;8.660;2022-12-29T05:39:42;12.00;1.00
3778;DHT22;1904;50.076;8.660;2022-12-29T05:42:07;12.00;1.00
3778;DHT22;1904;50.076;8.660;2022-12-29T05:44:49;12.10;1.00
3778;DHT22;1904;50.076;8.660;2022-12-29T05:47:19;12.00;1.00
3778;DHT22;1904;50.076;8.660;2022-12-29T05:49:45;12.00;1.00
3778;DHT22;1904;50.076;8.660;2022-12-29T05:52:11;12.10;1.00
3778;DHT22;1904;50.076;8.660;2022-12-29T05:54:36;12.10;1.00
3778;DHT22;1904;50.076;8.660;2022-12-29T05:57:02;12.10;1.00
3778;DHT22;1904;50.076;8.660;2022-12-29T05:59:31;12.10;1.00
3778;DHT22;1904;50.076;8.660;2022-12-29T06:08:01;12.20;1.00
3778;DHT22;1904;50.076;8.660;2022-12-29T06:10:27;12.30;1.00
3778;DHT22;1904;50.076;8.660;2022-12-29T06:12:53;12.30;1.00
3778;DHT22;1904;50.076;8.660;2022-12-29T06:15:20;12.40;1.00
3778;DHT22;1904;50.076;8.660;2022-12-29T06:17:49;12.40;1.00
3778;DHT22;1904;50.076;8.660;2022-12-29T06:20:15;12.50;1.00
3778;DHT22;1904;50.076;8.660;2022-12-29T06:22:43;12.40;1.00
3778;DHT22;1904;50.076;8.660;2022-12-29T06:25:09;12.40;1.00
3778;DHT22;1904;50.076;8.660;2022-12-29T06:30:37;12.50;1.00
3778;DHT22;1904;50.076;8.660;2022-12-29T06:33:19;12.50;1.00
3778;DHT22;1904;50.076;8.660;2022-12-29T06:35:46;12.50;1.00
3778;DHT22;1904;50.076;8.660;2022-12-29T06:38:13;12.50;1.00
3778;DHT22;1904;50.076;8.660;2022-12-29T06:46:31;12.50;1.00
3778;DHT22;1904;50.076;8.660;2022-12-29T06:49:01;12.50;1.00
3778;DHT22;1904;50.076;8.660;2022-12-29T06:51:37;12.50;1.00
3778;DHT22;1904;50.076;8.660;2022-12-29T06:54:03;12.60;1.00
3778;DHT22;1904;50.076;8.660;2022-12-29T06:56:29;12.50;1.00
3778;DHT22;1904;50.076;8.660;2022-12-29T06:58:55;12.50;1.00
3778;DHT22;1904;50.076;8.660;2022-12-29T07:01:25;12.50;1.00
3778;DHT22;1904;50.076;8.660;2022-12-29T07:03:53;12.40;1.00
3778;DHT22;1904;50.076;8.660;2022-12-29T07:06:18;12.40;1.00
3778;DHT22;1904;50.076;8.660;2022-12-29T07:08:44;12.40;1.00
3778;DHT22;1904;50.076;8.660;2022-12-29T07:11:10;12.40;1.00
3778;DHT22;1904;50.076;8.660;2022-12-29T07:13:36;12.40;1.00
3778;DHT22;1904;50.076;8.660;2022-12-29T07:16:13;12.40;1.00
3778;DHT22;1904;50.076;8.660;2022-12-29T07:18:39;12.30;1.00
3778;DHT22;1904;50.076;8.660;2022-12-29T07:21:07;12.40;1.00
3778;DHT22;1904;50.076;8.660;2022-12-29T07:23:37;12.30;1.00
3778;DHT22;1904;50.076;8.660;2022-12-29T07:26:08;12.30;1.00
3778;DHT22;1904;50.076;8.660;2022-12-29T07:31:43;12.40;1.00
3778;DHT22;1904;50.076;8.660;2022-12-29T07:34:19;12.30;1.00
3778;DHT22;1904;50.076;8.660;2022-12-29T07:36:49;12.30;1.00
3778;DHT22;1904;50.076;8.660;2022-12-29T07:39:15;12.30;1.00
3778;DHT22;1904;50.076;8.660;2022-12-29T07:41:44;12.40;1.00
3778;DHT22;1904;50.076;8.660;2022-12-29T07:44:09;12.40;1.00
3778;DHT22;1904;50.076;8.660;2022-12-29T07:46:38;12.40;1.00
3778;DHT22;1904;50.076;8.660;2022-12-29T07:49:03;12.50;1.00
3778;DHT22;1904;50.076;8.660;2022-12-29T07:51:29;12.50;1.00
3778;DHT22;1904;50.076;8.660;2022-12-29T07:53:56;12.50;1.00
3778;DHT22;1904;50.076;8.660;2022-12-29T07:56:22;12.50;1.00
3778;DHT22;1904;50.076;8.660;2022-12-29T07:58:47;12.60;1.00
3778;DHT22;1904;50.076;8.660;2022-12-29T08:01:20;12.60;1.00
3778;DHT22;1904;50.076;8.660;2022-12-29T08:03:56;12.50;1.00
3778;DHT22;1904;50.076;8.660;2022-12-29T08:06:32;12.50;1.00
3778;DHT22;1904;50.076;8.660;2022-12-29T08:09:02;12.50;1.00
3778;DHT22;1904;50.076;8.660;2022-12-29T08:11:44;12.50;1.00
3778;DHT22;1904;50.076;8.660;2022-12-29T08:14:26;12.40;1.00
3778;DHT22;1904;50.076;8.660;2022-12-29T08:17:08;12.40;1.00
3778;DHT22;1904;50.076;8.660;2022-12-29T08:19:50;12.30;1.00
3778;DHT22;1904;50.076;8.660;2022-12-29T08:22:26;12.40;1.00
3778;DHT22;1904;50.076;8.660;2022-12-29T08:24:56;12.30;1.00
3778;DHT22;1904;50.076;8.660;2022-12-29T08:27:26;12.30;1.00
3778;DHT22;1904;50.076;8.660;2022-12-29T08:29:56;12.30;1.00
3778;DHT22;1904;50.076;8.660;2022-12-29T08:32:26;12.30;1.00
3778;DHT22;1904;50.076;8.660;2022-12-29T08:43:56;12.30;1.00
3778;DHT22;1904;50.076;8.660;2022-12-29T08:46:26;12.40;1.00
3778;DHT22;1904;50.076;8.660;2022-12-29T08:48:56;12.50;1.00
3778;DHT22;1904;50.076;8.660;2022-12-29T08:51:32;12.50;1.00
3778;DHT22;1904;50.076;8.660;2022-12-29T08:54:14;12.50;1.00
3778;DHT22;1904;50.076;8.660;2022-12-29T08:56:44;12.50;1.00
3778;DHT22;1904;50.076;8.660;2022-12-29T08:59:20;12.50;1.00
3778;DHT22;1904;50.076;8.660;2022-12-29T09:01:56;12.50;1.00
3778;DHT22;1904;50.076;8.660;2022-12-29T09:04:32;12.40;1.00
3778;DHT22;1904;50.076;8.660;2022-12-29T09:06:57;12.30;1.00
3778;DHT22;1904;50.076;8.660;2022-12-29T09:09:26;12.30;1.00
3778;DHT22;1904;50.076;8.660;2022-12-29T09:11:56;12.30;1.00
3778;DHT22;1904;50.076;8.660;2022-12-29T09:14:26;12.20;1.00
3778;DHT22;1904;50.076;8.660;2022-12-29T09:16:56;12.20;1.00
3778;DHT22;1904;50.076;8.660;2022-12-29T09:22:46;12.20;1.00
3778;DHT22;1904;50.076;8.660;2022-12-29T09:25:28;12.20;1.00
3778;DHT22;1904;50.076;8.660;2022-12-29T09:27:58;12.20;1.00
3778;DHT22;1904;50.076;8.660;2022-12-29T09:30:34;12.10;1.00
3778;DHT22;1904;50.076;8.660;2022-12-29T09:32:59;11.90;1.00
3778;DHT22;1904;50.076;8.660;2022-12-29T09:35:28;11.80;1.00
3778;DHT22;1904;50.076;8.660;2022-12-29T09:37:58;11.70;1.00
3778;DHT22;1904;50.076;8.660;2022-12-29T09:40:25;11.60;1.00
3778;DHT22;1904;50.076;8.660;2022-12-29T09:45:42;11.40;1.00
3778;DHT22;1904;50.076;8.660;2022-12-29T09:48:11;11.20;1.00
3778;DHT22;1904;50.076;8.660;2022-12-29T09:50:40;11.20;1.00
3778;DHT22;1904;50.076;8.660;2022-12-29T09:53:15;11.30;1.00
3778;DHT22;1904;50.076;8.660;2022-12-29T09:55:53;11.20;1.00
3778;DHT22;1904;50.076;8.660;2022-12-29T09:58:24;11.30;1.00
3778;DHT22;1904;50.076;8.660;2022-12-29T10:03:45;11.20;1.70
3778;DHT22;1904;50.076;8.660;2022-12-29T10:06:18;11.10;1.90
3778;DHT22;1904;50.076;8.660;2022-12-29T10:16:54;10.80;4.10
3778;DHT22;1904;50.076;8.660;2022-12-29T10:19:30;10.80;1.90
3778;DHT22;1904;50.076;8.660;2022-12-29T10:24:30;10.70;1.00
3778;DHT22;1904;50.076;8.660;2022-12-29T10:29:43;10.70;1.00
3778;DHT22;1904;50.076;8.660;2022-12-29T10:35:43;10.70;1.00
3778;DHT22;1904;50.076;8.660;2022-12-29T10:43:29;10.60;1.00
3778;DHT22;1904;50.076;8.660;2022-12-29T10:48:41;10.70;1.00
3778;DHT22;1904;50.076;8.660;2022-12-29T10:51:11;10.70;1.00
3778;DHT22;1904;50.076;8.660;2022-12-29T10:53:46;10.80;1.00
3778;DHT22;1904;50.076;8.660;2022-12-29T10:58:48;11.10;1.00
3778;DHT22;1904;50.076;8.660;2022-12-29T11:01:14;11.10;1.00
3778;DHT22;1904;50.076;8.660;2022-12-29T11:03:43;11.10;1.00
3778;DHT22;1904;50.076;8.660;2022-12-29T11:06:24;11.10;1.00
3778;DHT22;1904;50.076;8.660;2022-12-29T11:08:56;11.10;1.00
3778;DHT22;1904;50.076;8.660;2022-12-29T11:11:26;11.20;1.00
3778;DHT22;1904;50.076;8.660;2022-12-29T11:13:56;11.30;1.00
3778;DHT22;1904;50.076;8.660;2022-12-29T11:16:29;11.30;1.00
3778;DHT22;1904;50.076;8.660;2022-12-29T11:18:56;11.40;1.00
3778;DHT22;1904;50.076;8.660;2022-12-29T11:21:26;11.50;1.00
3778;DHT22;1904;50.076;8.660;2022-12-29T11:24:00;11.60;1.00
3778;DHT22;1904;50.076;8.660;2022-12-29T11:32:27;11.80;1.00
3778;DHT22;1904;50.076;8.660;2022-12-29T11:34:58;11.80;1.00
3778;DHT22;1904;50.076;8.660;2022-12-29T11:37:31;11.90;1.00
3778;DHT22;1904;50.076;8.660;2022-12-29T11:40:01;11.90;1.00
3778;DHT22;1904;50.076;8.660;2022-12-29T11:42:51;11.90;1.00
3778;DHT22;1904;50.076;8.660;2022-12-29T11:48:08;12.20;1.00
3778;DHT22;1904;50.076;8.660;2022-12-29T11:53:29;12.30;1.00
3778;DHT22;1904;50.076;8.660;2022-12-29T11:56:05;12.40;1.00
3778;DHT22;1904;50.076;8.660;2022-12-29T11:58:32;12.50;1.00
3778;DHT22;1904;50.076;8.660;2022-12-29T12:01:10;12.60;1.00
3778;DHT22;1904;50.076;8.660;2022-12-29T12:03:37;12.60;1.00
3778;DHT22;1904;50.076;8.660;2022-12-29T12:06:07;12.50;1.00
3778;DHT22;1904;50.076;8.660;2022-12-29T12:08:48;12.70;1.00
3778;DHT22;1904;50.076;8.660;2022-12-29T12:11:16;12.70;1.00
3778;DHT22;1904;50.076;8.660;2022-12-29T12:16:12;12.80;1.00
3778;DHT22;1904;50.076;8.660;2022-12-29T12:19:02;12.80;1.00
3778;DHT22;1904;50.076;8.660;2022-12-29T12:21:34;12.80;1.00
3778;DHT22;1904;50.076;8.660;2022-12-29T12:35:16;12.90;1.00
3778;DHT22;1904;50.076;8.660;2022-12-29T13:00:23;12.80;1.00
3778;DHT22;1904;50.076;8.660;2022-12-29T13:11:13;12.50;1.00
3778;DHT22;1904;50.076;8.660;2022-12-29T13:16:41;12.50;1.00
3778;DHT22;1904;50.076;8.660;2022-12-29T13:19:20;12.50;1.00
3778;DHT22;1904;50.076;8.660;2022-12-29T13:29:41;12.60;1.00
3778;DHT22;1904;50.076;8.660;2022-12-29T13:32:20;12.80;1.00
3778;DHT22;1904;50.076;8.660;2022-12-29T13:34:56;12.90;1.00
3778;DHT22;1904;50.076;8.660;2022-12-29T13:37:29;12.90;1.00
3778;DHT22;1904;50.076;8.660;2022-12-29T13:40:31;12.80;1.00
3778;DHT22;1904;50.076;8.660;2022-12-29T13:42:48;12.70;1.00
3778;DHT22;1904;50.076;8.660;2022-12-29T13:45:19;12.60;1.00
3778;DHT22;1904;50.076;8.660;2022-12-29T13:50:54;12.50;1.00
3778;DHT22;1904;50.076;8.660;2022-12-29T13:56:03;12.50;1.00
3778;DHT22;1904;50.076;8.660;2022-12-29T13:58:31;12.60;1.00
3778;DHT22;1904;50.076;8.660;2022-12-29T14:01:17;12.60;1.00
3778;DHT22;1904;50.076;8.660;2022-12-29T14:06:29;12.60;1.00
3778;DHT22;1904;50.076;8.660;2022-12-29T14:11:57;12.60;1.00
3778;DHT22;1904;50.076;8.660;2022-12-29T14:14:24;12.60;1.00
3778;DHT22;1904;50.076;8.660;2022-12-29T14:16:53;12.60;1.00
3778;DHT22;1904;50.076;8.660;2022-12-29T14:19:30;12.60;1.00
3778;DHT22;1904;50.076;8.660;2022-12-29T14:29:42;12.20;1.00
3778;DHT22;1904;50.076;8.660;2022-12-29T14:34:48;12.10;1.00
3778;DHT22;1904;50.076;8.660;2022-12-29T14:42:41;12.00;1.00
3778;DHT22;1904;50.076;8.660;2022-12-29T14:47:38;12.00;1.00
3778;DHT22;1904;50.076;8.660;2022-12-29T14:52:54;12.00;1.00
3778;DHT22;1904;50.076;8.660;2022-12-29T15:00:53;12.00;1.00
3778;DHT22;1904;50.076;8.660;2022-12-29T15:08:24;12.10;1.00
3778;DHT22;1904;50.076;8.660;2022-12-29T15:10:58;12.00;1.00
3778;DHT22;1904;50.076;8.660;2022-12-29T15:13:44;11.90;1.00
3778;DHT22;1904;50.076;8.660;2022-12-29T15:18:53;11.70;1.00
3778;DHT22;1904;50.076;8.660;2022-12-29T15:21:27;11.60;1.00
3778;DHT22;1904;50.076;8.660;2022-12-29T15:23:54;11.50;1.00
3778;DHT22;1904;50.076;8.660;2022-12-29T15:26:20;11.40;1.00
3778;DHT22;1904;50.076;8.660;2022-12-29T15:28:59;11.30;1.00
3778;DHT22;1904;50.076;8.660;2022-12-29T15:31:25;11.20;1.00
3778;DHT22;1904;50.076;8.660;2022-12-29T15:34:07;11.10;1.00
3778;DHT22;1904;50.076;8.660;2022-12-29T15:36:39;11.10;1.00
3778;DHT22;1904;50.076;8.660;2022-12-29T15:39:23;11.00;1.00
3778;DHT22;1904;50.076;8.660;2022-12-29T15:42:03;11.00;1.00
3778;DHT22;1904;50.076;8.660;2022-12-29T15:44:40;11.00;1.00
3778;DHT22;1904;50.076;8.660;2022-12-29T15:47:18;10.90;1.00
3778;DHT22;1904;50.076;8.660;2022-12-29T15:50:01;10.90;1.00
3778;DHT22;1904;50.076;8.660;2022-12-29T15:52:29;10.90;1.00
3778;DHT22;1904;50.076;8.660;2022-12-29T15:54:56;10.90;1.00
3778;DHT22;1904;50.076;8.660;2022-12-29T15:57:41;10.80;1.00
3778;DHT22;1904;50.076;8.660;2022-12-29T16:00:23;10.80;1.00
3778;DHT22;1904;50.076;8.660;2022-12-29T16:02:51;10.80;1.00
3778;DHT22;1904;50.076;8.660;2022-12-29T16:05:17;10.80;1.00
3778;DHT22;1904;50.076;8.660;2022-12-29T16:07:54;10.80;1.00
3778;DHT22;1904;50.076;8.660;2022-12-29T16:10:31;10.70;1.00
3778;DHT22;1904;50.076;8.660;2022-12-29T16:15:51;10.70;1.00
3778;DHT22;1904;50.076;8.660;2022-12-29T16:18:40;10.70;1.00
3778;DHT22;1904;50.076;8.660;2022-12-29T16:21:11;10.60;1.00
3778;DHT22;1904;50.076;8.660;2022-12-29T16:23:40;10.60;1.00
3778;DHT22;1904;50.076;8.660;2022-12-29T16:26:12;10.60;1.00
3778;DHT22;1904;50.076;8.660;2022-12-29T16:28:41;10.60;1.00
3778;DHT22;1904;50.076;8.660;2022-12-29T16:31:19;10.50;1.00
3778;DHT22;1904;50.076;8.660;2022-12-29T16:33:54;10.40;1.00
3778;DHT22;1904;50.076;8.660;2022-12-29T16:41:51;10.30;1.00
3778;DHT22;1904;50.076;8.660;2022-12-29T16:49:35;10.10;1.00
3778;DHT22;1904;50.076;8.660;2022-12-29T16:52:22;10.10;1.00
3778;DHT22;1904;50.076;8.660;2022-12-29T16:55:05;10.00;1.00
3778;DHT22;1904;50.076;8.660;2022-12-29T16:57:35;9.90;1.00
3778;DHT22;1904;50.076;8.660;2022-12-29T17:02:56;9.80;1.00
3778;DHT22;1904;50.076;8.660;2022-12-29T17:05:23;9.80;1.00
3778;DHT22;1904;50.076;8.660;2022-12-29T17:07:50;9.70;1.00
3778;DHT22;1904;50.076;8.660;2022-12-29T17:10:16;9.60;1.00
3778;DHT22;1904;50.076;8.660;2022-12-29T17:12:47;9.60;1.00
3778;DHT22;1904;50.076;8.660;2022-12-29T17:17:49;9.50;1.00
3778;DHT22;1904;50.076;8.660;2022-12-29T17:20:20;9.50;1.00
3778;DHT22;1904;50.076;8.660;2022-12-29T17:22:46;9.40;1.00
3778;DHT22;1904;50.076;8.660;2022-12-29T17:25:16;9.40;1.00
3778;DHT22;1904;50.076;8.660;2022-12-29T17:27:44;9.30;1.00
3778;DHT22;1904;50.076;8.660;2022-12-29T17:30:15;9.40;1.00
3778;DHT22;1904;50.076;8.660;2022-12-29T17:35:29;9.40;1.00
3778;DHT22;1904;50.076;8.660;2022-12-29T17:37:59;9.30;1.00
3778;DHT22;1904;50.076;8.660;2022-12-29T17:40:31;9.30;1.00
3778;DHT22;1904;50.076;8.660;2022-12-29T17:42:58;9.30;1.00
3778;DHT22;1904;50.076;8.660;2022-12-29T17:45:35;9.30;1.00
3778;DHT22;1904;50.076;8.660;2022-12-29T17:48:14;9.40;1.00
3778;DHT22;1904;50.076;8.660;2022-12-29T17:50:53;9.40;1.00
3778;DHT22;1904;50.076;8.660;2022-12-29T17:53:22;9.40;1.00
3778;DHT22;1904;50.076;8.660;2022-12-29T17:56:05;9.40;1.00
3778;DHT22;1904;50.076;8.660;2022-12-29T17:58:41;9.40;1.00
3778;DHT22;1904;50.076;8.660;2022-12-29T18:01:17;9.40;1.00
3778;DHT22;1904;50.076;8.660;2022-12-29T18:03:46;9.50;1.00
3778;DHT22;1904;50.076;8.660;2022-12-29T18:06:11;9.50;1.00
3778;DHT22;1904;50.076;8.660;2022-12-29T18:08:38;9.50;1.00
3778;DHT22;1904;50.076;8.660;2022-12-29T18:11:23;9.50;1.00
3778;DHT22;1904;50.076;8.660;2022-12-29T18:13:49;9.50;1.00
3778;DHT22;1904;50.076;8.660;2022-12-29T18:16:15;9.50;1.00
3778;DHT22;1904;50.076;8.660;2022-12-29T18:18:47;9.60;1.00
3778;DHT22;1904;50.076;8.660;2022-12-29T18:21:14;9.50;1.00
3778;DHT22;1904;50.076;8.660;2022-12-29T18:23:41;9.60;1.00
3778;DHT22;1904;50.076;8.660;2022-12-29T18:26:27;9.60;1.00
3778;DHT22;1904;50.076;8.660;2022-12-29T18:28:53;9.60;1.00
3778;DHT22;1904;50.076;8.660;2022-12-29T18:33:45;9.60;1.00
3778;DHT22;1904;50.076;8.660;2022-12-29T18:36:11;9.70;1.00
3778;DHT22;1904;50.076;8.660;2022-12-29T18:38:37;9.70;1.00
3778;DHT22;1904;50.076;8.660;2022-12-29T18:41:02;9.70;1.00
3778;DHT22;1904;50.076;8.660;2022-12-29T18:43:28;9.60;1.00
3778;DHT22;1904;50.076;8.660;2022-12-29T18:45:54;9.60;1.00
3778;DHT22;1904;50.076;8.660;2022-12-29T18:48:29;9.60;1.00
3778;DHT22;1904;50.076;8.660;2022-12-29T18:53:59;9.60;1.00
3778;DHT22;1904;50.076;8.660;2022-12-29T18:56:35;9.60;1.00
3778;DHT22;1904;50.076;8.660;2022-12-29T18:59:05;9.60;1.00
3778;DHT22;1904;50.076;8.660;2022-12-29T19:01:47;9.60;1.00
3778;DHT22;1904;50.076;8.660;2022-12-29T19:04:17;9.50;1.00
3778;DHT22;1904;50.076;8.660;2022-12-29T19:06:47;9.50;1.00
3778;DHT22;1904;50.076;8.660;2022-12-29T19:12:17;9.50;1.00
3778;DHT22;1904;50.076;8.660;2022-12-29T19:14:59;9.50;1.00
3778;DHT22;1904;50.076;8.660;2022-12-29T19:17:35;9.50;1.00
3778;DHT22;1904;50.076;8.660;2022-12-29T19:23:08;9.30;1.00
3778;DHT22;1904;50.076;8.660;2022-12-29T19:25:35;9.50;1.00
3778;DHT22;1904;50.076;8.660;2022-12-29T19:28:05;9.40;1.00
3778;DHT22;1904;50.076;8.660;2022-12-29T19:30:35;9.50;1.00
3778;DHT22;1904;50.076;8.660;2022-12-29T19:33:11;9.50;1.00
3778;DHT22;1904;50.076;8.660;2022-12-29T19:35:48;9.50;1.00
3778;DHT22;1904;50.076;8.660;2022-12-29T19:38:29;9.60;1.00
3778;DHT22;1904;50.076;8.660;2022-12-29T19:40:59;9.60;1.00
3778;DHT22;1904;50.076;8.660;2022-12-29T19:43:25;9.70;1.00
3778;DHT22;1904;50.076;8.660;2022-12-29T19:46:06;9.80;1.00
3778;DHT22;1904;50.076;8.660;2022-12-29T19:48:35;9.70;1.00
3778;DHT22;1904;50.076;8.660;2022-12-29T19:51:06;9.80;1.00
3778;DHT22;1904;50.076;8.660;2022-12-29T19:56:31;9.80;1.00
3778;DHT22;1904;50.076;8.660;2022-12-29T19:59:05;9.80;1.00
3778;DHT22;1904;50.076;8.660;2022-12-29T20:01:35;9.80;1.00
3778;DHT22;1904;50.076;8.660;2022-12-29T20:04:05;9.80;1.00
3778;DHT22;1904;50.076;8.660;2022-12-29T20:06:41;9.90;1.00
3778;DHT22;1904;50.076;8.660;2022-12-29T20:09:11;9.90;1.00
3778;DHT22;1904;50.076;8.660;2022-12-29T20:11:47;9.90;1.00
3778;DHT22;1904;50.076;8.660;2022-12-29T20:14:13;9.90;1.00
3778;DHT22;1904;50.076;8.660;2022-12-29T20:19:36;9.80;1.00
3778;DHT22;1904;50.076;8.660;2022-12-29T20:22:06;9.80;1.00
3778;DHT22;1904;50.076;8.660;2022-12-29T20:30:23;9.80;1.00
3778;DHT22;1904;50.076;8.660;2022-12-29T20:35:31;9.80;1.00
3778;DHT22;1904;50.076;8.660;2022-12-29T20:40:59;9.90;1.00
3778;DHT22;1904;50.076;8.660;2022-12-29T20:43:35;9.90;1.00
3778;DHT22;1904;50.076;8.660;2022-12-29T20:46:11;9.90;1.00
3778;DHT22;1904;50.076;8.660;2022-12-29T20:48:39;9.90;1.00
3778;DHT22;1904;50.076;8.660;2022-12-29T20:51:05;9.90;1.00
3778;DHT22;1904;50.076;8.660;2022-12-29T20:53:36;9.90;1.00
3778;DHT22;1904;50.076;8.660;2022-12-29T20:56:07;9.90;1.00
3778;DHT22;1904;50.076;8.660;2022-12-29T20:58:41;9.90;1.00
3778;DHT22;1904;50.076;8.660;2022-12-29T21:01:07;9.80;1.00
3778;DHT22;1904;50.076;8.660;2022-12-29T21:03:33;9.80;1.00
3778;DHT22;1904;50.076;8.660;2022-12-29T21:09:05;9.60;1.00
3778;DHT22;1904;50.076;8.660;2022-12-29T21:11:35;9.60;1.00
3778;DHT22;1904;50.076;8.660;2022-12-29T21:14:05;9.60;1.00
3778;DHT22;1904;50.076;8.660;2022-12-29T21:16:41;9.60;1.00
3778;DHT22;1904;50.076;8.660;2022-12-29T21:19:07;9.50;1.00
3778;DHT22;1904;50.076;8.660;2022-12-29T21:21:35;9.50;1.00
3778;DHT22;1904;50.076;8.660;2022-12-29T21:24:05;9.60;1.00
3778;DHT22;1904;50.076;8.660;2022-12-29T21:26:35;9.50;1.00
3778;DHT22;1904;50.076;8.660;2022-12-29T21:29:05;9.50;1.00
3778;DHT22;1904;50.076;8.660;2022-12-29T21:31:35;9.60;1.00
3778;DHT22;1904;50.076;8.660;2022-12-29T21:34:05;9.50;1.00
3778;DHT22;1904;50.076;8.660;2022-12-29T21:36:31;9.40;1.00
3778;DHT22;1904;50.076;8.660;2022-12-29T21:39:05;9.50;1.00
3778;DHT22;1904;50.076;8.660;2022-12-29T21:41:41;9.40;1.00
3778;DHT22;1904;50.076;8.660;2022-12-29T21:44:17;9.30;1.00
3778;DHT22;1904;50.076;8.660;2022-12-29T21:47:05;9.20;1.00
3778;DHT22;1904;50.076;8.660;2022-12-29T21:49:36;9.10;1.00
3778;DHT22;1904;50.076;8.660;2022-12-29T21:52:05;9.00;1.00
3778;DHT22;1904;50.076;8.660;2022-12-29T21:54:35;8.90;1.00
3778;DHT22;1904;50.076;8.660;2022-12-29T21:57:35;8.90;1.00
3778;DHT22;1904;50.076;8.660;2022-12-29T22:00:35;8.90;1.00
3778;DHT22;1904;50.076;8.660;2022-12-29T22:03:29;8.80;1.00